Shonai Airport Shonai JP
ICAO: RJSY
IATA:
Category: Medium
Scheduled Services:

Elevation: 86 ft
TransAlt. 0 ft.

Airport Communications:
RDO:118.8

RJSY Zoom In..

If you have problems with the map follow the link
https://www.worldairports.se/pages/airport.php?
ICAO=RJSY

Runways:

(A) RW 09 length 6562 ft width 148 ft
ILS 110.90 / hdg 88

(B) RW 27 length 6562 ft width 148 ft
LOC 111.50 / hdg 268

Location; RJSY
Day. 22 / Time. 12.00 Zulu
* QNH: 1023
* Temperature: 09° c. 48.2°f.
* Wind from: 110° Speed 09 kn.
Dewpoint: 05° c.
Visibility: 10 km or more,
No clouds below 1,500 m.
No cumulonimbus, and no significant weather
fenomena in the aerodrome or its vicinity.

RJSY 221200Z 11009KT CAVOK 09/05 Q1023


Wind From 110°
Speed 09 kn.

 
 
jpsmedia.com for Web Design worldairports.se 2018   terms of use